Time;durP1;ratioP1;P1;durP2;ratioP2;P2;SDS_P1;SDS_P2;PMS_P1;PMS_P2;Temp;Humidity;BMP_temperature;BMP_pressure;BME280_temperature;BME280_humidity;BME280_pressure;Samples;Min_cycle;Max_cycle;Signal;HPM_P1;HPM_P2
2022/03/18 00:00:21;;;;;;;11.43;4.57;;;2.40;99.90;;;;;;5033452;28;20053;-57
2022/03/18 00:02:48;;;;;;;9.23;3.90;;;2.30;99.90;;;;;;5039667;28;20047;-57
2022/03/18 00:05:15;;;;;;;10.07;4.85;;;2.20;99.90;;;;;;5039609;28;20049;-58
2022/03/18 00:07:42;;;;;;;9.50;4.38;;;2.10;99.90;;;;;;5032995;28;20045;-58
2022/03/18 00:10:09;;;;;;;10.18;4.20;;;2.10;99.90;;;;;;5038332;28;20159;-57
2022/03/18 00:12:37;;;;;;;9.15;4.30;;;2.10;99.90;;;;;;5041036;28;20045;-59
2022/03/18 00:15:09;;;;;;;9.68;4.18;;;2.10;99.90;;;;;;5054300;28;20057;-57
2022/03/18 00:17:35;;;;;;;9.77;4.65;;;2.10;99.90;;;;;;5042943;28;20584;-57
2022/03/18 00:20:02;;;;;;;9.98;4.45;;;2.10;99.90;;;;;;5050619;28;20127;-58
2022/03/18 00:22:28;;;;;;;9.55;4.38;;;2.10;99.90;;;;;;5031496;28;20041;-57
2022/03/18 00:24:55;;;;;;;9.18;4.18;;;2.10;99.90;;;;;;5053129;28;20128;-57
2022/03/18 00:27:21;;;;;;;10.65;3.88;;;2.10;99.90;;;;;;5053907;28;20049;-57
2022/03/18 00:29:47;;;;;;;11.10;4.47;;;2.10;99.90;;;;;;5040377;28;20084;-57
2022/03/18 00:32:13;;;;;;;15.98;5.25;;;2.10;99.90;;;;;;5040241;28;20521;-57
2022/03/18 00:34:39;;;;;;;10.90;5.10;;;2.10;99.90;;;;;;5037260;28;20087;-57
2022/03/18 00:37:06;;;;;;;14.30;5.47;;;2.10;99.90;;;;;;5027782;28;20057;-57
2022/03/18 00:39:33;;;;;;;10.30;5.05;;;2.10;99.90;;;;;;5055242;28;20145;-59
2022/03/18 00:41:59;;;;;;;12.82;5.63;;;2.10;99.90;;;;;;5055667;28;20137;-58
2022/03/18 00:44:25;;;;;;;12.43;5.35;;;2.10;99.90;;;;;;5046835;28;20103;-57
2022/03/18 00:46:53;;;;;;;10.40;4.80;;;2.00;99.90;;;;;;5040770;28;20080;-57
2022/03/18 00:52:05;;;;;;;13.82;5.75;;;2.00;99.90;;;;;;5005880;28;20049;-57
2022/03/18 00:54:39;;;;;;;11.45;4.57;;;2.00;99.90;;;;;;5028277;28;20412;-58
2022/03/18 00:57:09;;;;;;;10.55;4.47;;;2.00;99.90;;;;;;5058132;28;20056;-57
2022/03/18 00:59:35;;;;;;;13.10;5.07;;;1.90;99.90;;;;;;5026015;28;20076;-57
2022/03/18 01:02:02;;;;;;;18.17;4.93;;;1.90;99.90;;;;;;5055465;28;20737;-57
2022/03/18 01:04:28;;;;;;;9.80;4.90;;;1.90;99.90;;;;;;5027207;28;20057;-57
2022/03/18 01:06:55;;;;;;;13.52;4.78;;;1.90;99.90;;;;;;5027833;28;20129;-58
2022/03/18 01:09:22;;;;;;;11.35;5.00;;;1.90;99.90;;;;;;5025928;28;20516;-57
2022/03/18 01:11:51;;;;;;;8.40;4.53;;;1.90;99.90;;;;;;5064306;28;20049;-58
2022/03/18 01:14:17;;;;;;;9.95;4.90;;;1.90;99.90;;;;;;5054891;28;20124;-57
2022/03/18 01:16:44;;;;;;;10.63;4.53;;;1.90;99.90;;;;;;5045660;28;20126;-57
2022/03/18 01:19:11;;;;;;;11.23;5.20;;;1.90;99.90;;;;;;5039303;28;20049;-57
2022/03/18 01:21:38;;;;;;;12.30;4.97;;;1.90;99.90;;;;;;5045910;28;20554;-57
2022/03/18 01:24:05;;;;;;;7.35;4.10;;;1.90;99.90;;;;;;5038235;28;20040;-58
2022/03/18 01:26:31;;;;;;;13.00;5.07;;;1.80;99.90;;;;;;5041981;28;20052;-57
2022/03/18 01:28:58;;;;;;;9.32;4.72;;;1.80;99.90;;;;;;5041363;28;20049;-58
2022/03/18 01:31:26;;;;;;;8.43;4.38;;;1.90;99.90;;;;;;5044175;28;20099;-58
2022/03/18 01:33:53;;;;;;;10.00;4.38;;;1.80;99.90;;;;;;5058687;28;20052;-57
2022/03/18 01:36:19;;;;;;;13.38;5.20;;;1.80;99.90;;;;;;5043500;28;20057;-57
2022/03/18 01:38:45;;;;;;;9.98;5.05;;;1.80;99.90;;;;;;5043321;28;20768;-58
2022/03/18 01:41:11;;;;;;;12.40;5.93;;;1.70;99.90;;;;;;5024969;28;20404;-57
2022/03/18 01:43:41;;;;;;;9.95;5.00;;;1.70;99.90;;;;;;5045087;28;20139;-57
2022/03/18 01:46:08;;;;;;;11.70;6.07;;;1.70;99.90;;;;;;5044184;28;20712;-57
2022/03/18 01:48:35;;;;;;;10.48;4.80;;;1.70;99.90;;;;;;5043074;28;20045;-58
2022/03/18 01:51:05;;;;;;;20.83;7.00;;;1.70;99.90;;;;;;5040955;28;20053;-58
2022/03/18 01:53:34;;;;;;;10.32;5.32;;;1.60;99.90;;;;;;5044434;28;20060;-57
2022/03/18 01:56:00;;;;;;;13.45;6.00;;;1.70;99.90;;;;;;5051153;28;20884;-57
2022/03/18 01:58:26;;;;;;;8.30;5.22;;;1.70;99.90;;;;;;5048525;28;20051;-57
2022/03/18 02:00:53;;;;;;;12.32;5.90;;;1.60;99.90;;;;;;5039728;28;20420;-57
2022/03/18 02:03:19;;;;;;;11.65;6.97;;;1.60;99.90;;;;;;5031692;28;20041;-58
2022/03/18 02:05:45;;;;;;;10.73;5.00;;;1.60;99.90;;;;;;5034923;28;20094;-57
2022/03/18 02:08:15;;;;;;;14.07;5.75;;;1.50;99.90;;;;;;5041030;28;20045;-57
2022/03/18 02:10:42;;;;;;;12.18;6.03;;;1.50;99.90;;;;;;5040200;28;20049;-57
2022/03/18 02:13:08;;;;;;;11.38;6.78;;;1.50;99.90;;;;;;5037897;28;20087;-57
2022/03/18 02:15:35;;;;;;;14.05;6.38;;;1.40;99.90;;;;;;5037290;28;20072;-57
2022/03/18 02:18:01;;;;;;;12.38;5.90;;;1.40;99.90;;;;;;5058097;28;20474;-57
2022/03/18 02:20:27;;;;;;;10.43;6.38;;;1.50;99.90;;;;;;5042559;28;20053;-59
2022/03/18 02:22:53;;;;;;;8.65;5.63;;;1.40;99.90;;;;;;5040582;28;20369;-57
2022/03/18 02:25:19;;;;;;;14.10;6.00;;;1.30;99.90;;;;;;5050987;28;20068;-57
2022/03/18 02:28:01;;;;;;;9.20;5.55;;;1.30;99.90;;;;;;5025016;28;20045;-57
2022/03/18 02:30:32;;;;;;;12.20;5.85;;;1.30;99.90;;;;;;5055886;28;20048;-58
2022/03/18 02:33:00;;;;;;;13.68;5.65;;;1.30;99.90;;;;;;5055046;28;20333;-58
2022/03/18 02:35:28;;;;;;;12.32;5.65;;;1.30;99.90;;;;;;5053512;28;20041;-57
2022/03/18 02:37:56;;;;;;;8.82;5.25;;;1.20;99.90;;;;;;5041986;28;20048;-57
2022/03/18 02:40:24;;;;;;;11.10;5.35;;;1.30;99.90;;;;;;5037937;28;20416;-57
2022/03/18 02:42:51;;;;;;;8.50;5.22;;;1.20;99.90;;;;;;5041412;28;20083;-58
2022/03/18 02:45:17;;;;;;;11.90;6.05;;;1.20;99.90;;;;;;5028152;28;20046;-57
2022/03/18 02:47:43;;;;;;;11.98;6.57;;;1.20;99.90;;;;;;5039894;28;20053;-57
2022/03/18 02:50:09;;;;;;;11.20;6.18;;;1.20;99.90;;;;;;5009199;28;20148;-59
2022/03/18 02:52:36;;;;;;;13.57;5.53;;;1.30;99.90;;;;;;5040157;28;20045;-57
2022/03/18 02:55:02;;;;;;;12.57;5.90;;;1.20;99.90;;;;;;5042301;28;20136;-57
2022/03/18 02:57:32;;;;;;;12.35;6.32;;;1.30;99.90;;;;;;5038047;28;20048;-57
2022/03/18 02:59:59;;;;;;;12.52;5.95;;;1.20;99.90;;;;;;5040657;28;20476;-57
2022/03/18 03:02:26;;;;;;;11.40;6.05;;;1.20;99.90;;;;;;5042832;28;20053;-57
2022/03/18 03:10:22;;;;;;;10.27;5.88;;;1.20;99.90;;;;;;5034398;28;20140;-58
2022/03/18 03:12:49;;;;;;;12.90;6.20;;;1.30;99.90;;;;;;5058015;28;20053;-57
2022/03/18 03:15:15;;;;;;;11.30;5.97;;;1.20;99.90;;;;;;5023593;28;20418;-57
2022/03/18 03:17:41;;;;;;;10.23;6.80;;;1.20;99.90;;;;;;5039897;28;20053;-57
2022/03/18 03:20:08;;;;;;;10.50;5.85;;;1.20;99.90;;;;;;5039021;28;20052;-57
2022/03/18 03:22:34;;;;;;;14.45;5.78;;;1.20;99.90;;;;;;5022407;28;20099;-57
2022/03/18 03:25:00;;;;;;;9.10;4.95;;;1.20;99.90;;;;;;5036279;28;20060;-57
2022/03/18 03:27:29;;;;;;;13.57;6.35;;;1.20;99.90;;;;;;5032710;28;20049;-57
2022/03/18 03:30:14;;;;;;;16.23;7.10;;;1.20;99.90;;;;;;5042526;28;20052;-57
2022/03/18 03:32:40;;;;;;;14.98;5.85;;;1.20;99.90;;;;;;5037660;28;20045;-57
2022/03/18 03:35:06;;;;;;;12.68;5.35;;;1.20;99.90;;;;;;5043002;28;20091;-58
2022/03/18 03:37:32;;;;;;;11.02;6.03;;;1.20;99.90;;;;;;5042863;28;20051;-57
2022/03/18 03:39:59;;;;;;;10.20;5.70;;;1.10;99.90;;;;;;5042209;28;20384;-57
2022/03/18 03:42:25;;;;;;;12.27;5.65;;;1.10;99.90;;;;;;5040073;28;20040;-57
2022/03/18 03:44:51;;;;;;;13.07;6.20;;;1.00;99.90;;;;;;5032990;28;20060;-57
2022/03/18 03:47:18;;;;;;;12.15;5.70;;;1.10;99.90;;;;;;5049747;28;20049;-57
2022/03/18 03:49:44;;;;;;;13.45;5.68;;;1.00;99.90;;;;;;5035048;28;20183;-57
2022/03/18 03:52:11;;;;;;;12.63;6.20;;;1.00;99.90;;;;;;5055776;28;20126;-57
2022/03/18 03:54:38;;;;;;;10.07;6.03;;;1.00;99.90;;;;;;5042546;28;20057;-57
2022/03/18 03:57:05;;;;;;;12.15;6.53;;;1.00;99.90;;;;;;5021863;28;20054;-57
2022/03/18 03:59:31;;;;;;;13.93;6.72;;;1.00;99.90;;;;;;5012277;28;20041;-61
2022/03/18 04:01:58;;;;;;;11.27;6.60;;;1.10;99.90;;;;;;5041022;28;20040;-58
2022/03/18 04:04:27;;;;;;;13.30;7.15;;;1.10;99.90;;;;;;5039188;28;20041;-57
2022/03/18 04:06:54;;;;;;;12.90;7.28;;;1.10;99.90;;;;;;5041825;28;20041;-57
2022/03/18 04:09:20;;;;;;;11.02;7.07;;;1.10;99.90;;;;;;5039079;28;20044;-57
2022/03/18 04:11:46;;;;;;;11.40;6.82;;;1.10;99.90;;;;;;5044698;28;21462;-57
2022/03/18 04:14:12;;;;;;;13.27;6.72;;;1.10;99.90;;;;;;5040919;28;20052;-57
2022/03/18 04:16:39;;;;;;;19.15;7.53;;;1.00;99.90;;;;;;5044594;28;20064;-57
2022/03/18 04:19:05;;;;;;;13.57;7.10;;;1.00;99.90;;;;;;5040544;28;20056;-57
2022/03/18 04:21:31;;;;;;;11.50;6.93;;;0.90;99.90;;;;;;5037707;28;20546;-57
2022/03/18 04:23:57;;;;;;;16.63;10.18;;;0.90;99.90;;;;;;5035731;28;20075;-57
2022/03/18 04:26:23;;;;;;;17.25;7.97;;;0.90;99.90;;;;;;5015315;28;20582;-57
2022/03/18 04:28:49;;;;;;;17.35;9.35;;;0.90;99.90;;;;;;5042031;28;20041;-57
2022/03/18 04:31:15;;;;;;;12.52;8.55;;;0.90;99.90;;;;;;5037681;28;20524;-57
2022/03/18 04:33:42;;;;;;;15.45;8.85;;;0.90;99.90;;;;;;5054589;28;20256;-58
2022/03/18 04:36:08;;;;;;;16.88;9.20;;;0.90;99.90;;;;;;5020459;28;20052;-57
2022/03/18 04:38:34;;;;;;;17.92;9.30;;;0.90;99.90;;;;;;5039994;28;20059;-57
2022/03/18 04:41:00;;;;;;;16.83;8.40;;;0.90;99.90;;;;;;5041321;28;20052;-57
2022/03/18 04:43:27;;;;;;;15.02;8.77;;;0.90;99.90;;;;;;5022946;28;20041;-58
2022/03/18 04:45:53;;;;;;;15.90;8.60;;;0.90;99.90;;;;;;5041226;28;20135;-57
2022/03/18 04:48:19;;;;;;;14.07;9.07;;;0.90;99.90;;;;;;5041897;28;20060;-57
2022/03/18 04:50:45;;;;;;;15.27;9.02;;;0.90;99.90;;;;;;5041604;28;20238;-57
2022/03/18 04:53:12;;;;;;;16.73;8.50;;;0.90;99.90;;;;;;5030684;28;20048;-58
2022/03/18 04:55:38;;;;;;;13.10;8.68;;;0.90;99.90;;;;;;5038509;28;20087;-58
2022/03/18 04:58:04;;;;;;;13.57;9.10;;;0.90;99.90;;;;;;5037823;28;20049;-58
2022/03/18 05:00:30;;;;;;;14.48;8.30;;;0.90;99.90;;;;;;5039981;28;20401;-57
2022/03/18 05:02:57;;;;;;;13.07;8.73;;;0.90;99.90;;;;;;5038234;28;20558;-57
2022/03/18 05:05:23;;;;;;;14.45;8.80;;;1.00;99.90;;;;;;5055716;28;20460;-57
2022/03/18 05:07:50;;;;;;;13.18;8.23;;;1.00;99.90;;;;;;5038445;28;20139;-57
2022/03/18 05:10:18;;;;;;;11.25;8.45;;;1.00;99.90;;;;;;5033818;28;20112;-57
2022/03/18 05:12:48;;;;;;;10.50;7.50;;;0.90;99.90;;;;;;5032411;28;20589;-57
2022/03/18 05:15:14;;;;;;;11.70;8.05;;;1.00;99.90;;;;;;5040821;28;20563;-57
2022/03/18 05:17:40;;;;;;;13.50;8.18;;;0.90;99.90;;;;;;5021909;28;20053;-57
2022/03/18 05:20:09;;;;;;;14.48;9.27;;;0.90;99.90;;;;;;5030393;28;20057;-57
2022/03/18 05:22:36;;;;;;;13.60;9.02;;;0.90;99.90;;;;;;5046768;28;20123;-57
2022/03/18 05:25:02;;;;;;;11.88;7.93;;;0.90;99.90;;;;;;5053565;28;20336;-57
2022/03/18 05:27:28;;;;;;;17.02;8.88;;;0.80;99.90;;;;;;5036284;28;20057;-57
2022/03/18 05:29:55;;;;;;;19.20;9.45;;;0.80;99.90;;;;;;5035801;28;20072;-57
2022/03/18 05:32:22;;;;;;;17.30;9.02;;;0.80;99.90;;;;;;5037536;28;20083;-57
2022/03/18 05:34:48;;;;;;;13.73;8.43;;;0.80;99.90;;;;;;5036904;28;20053;-56
2022/03/18 05:37:14;;;;;;;13.85;9.02;;;0.80;99.90;;;;;;5042495;28;20087;-57
2022/03/18 05:39:41;;;;;;;13.48;7.88;;;0.80;99.90;;;;;;5057434;28;20064;-57
2022/03/18 05:42:08;;;;;;;16.83;8.85;;;0.80;99.90;;;;;;5054952;28;20049;-57
2022/03/18 05:44:34;;;;;;;13.05;9.10;;;0.80;99.90;;;;;;5035137;28;20500;-57
2022/03/18 05:47:00;;;;;;;12.07;8.27;;;0.80;99.90;;;;;;5036882;28;20051;-57
2022/03/18 05:49:27;;;;;;;16.55;7.90;;;0.80;99.90;;;;;;5034620;28;20041;-56
2022/03/18 05:51:53;;;;;;;12.90;8.75;;;0.90;99.90;;;;;;5041875;28;20052;-57
2022/03/18 05:54:19;;;;;;;14.57;9.65;;;0.80;99.90;;;;;;5036370;28;20041;-57
2022/03/18 05:56:54;;;;;;;16.08;9.63;;;0.80;99.90;;;;;;5043592;28;20041;-57
2022/03/18 05:59:25;;;;;;;14.57;8.82;;;0.80;99.90;;;;;;5036579;28;20098;-57
2022/03/18 06:01:58;;;;;;;13.65;9.07;;;0.80;99.90;;;;;;5024969;28;20147;-57
2022/03/18 06:04:25;;;;;;;15.30;10.57;;;0.80;99.90;;;;;;5054563;28;20524;-55
2022/03/18 06:06:51;;;;;;;14.13;9.18;;;0.80;99.90;;;;;;5051415;28;20045;-57
2022/03/18 06:12:04;;;;;;;16.38;9.90;;;0.80;99.90;;;;;;5043159;28;20052;-57
2022/03/18 06:14:30;;;;;;;15.65;9.27;;;0.90;99.90;;;;;;5023150;28;20049;-57
2022/03/18 06:16:59;;;;;;;15.05;10.20;;;0.90;99.90;;;;;;5043721;28;20076;-57
2022/03/18 06:19:27;;;;;;;18.58;10.02;;;1.00;99.90;;;;;;5039691;28;20118;-57
2022/03/18 06:21:54;;;;;;;18.80;9.88;;;1.00;99.90;;;;;;5042034;28;21241;-57
2022/03/18 06:24:21;;;;;;;18.00;10.73;;;1.00;99.90;;;;;;5043287;28;20045;-57
2022/03/18 06:26:49;;;;;;;15.63;9.52;;;1.10;99.90;;;;;;5018794;28;20130;-57
2022/03/18 06:29:15;;;;;;;16.55;9.55;;;1.10;99.90;;;;;;5040968;28;20044;-57
2022/03/18 06:31:41;;;;;;;15.98;9.45;;;1.20;99.90;;;;;;5041387;28;20049;-57
2022/03/18 06:34:10;;;;;;;16.08;9.13;;;1.20;99.90;;;;;;5057468;28;20044;-57
2022/03/18 06:36:36;;;;;;;16.02;10.48;;;1.30;99.90;;;;;;5056614;28;20300;-57
2022/03/18 06:39:03;;;;;;;16.77;9.98;;;1.30;99.90;;;;;;5042264;28;20053;-57
2022/03/18 06:41:31;;;;;;;17.35;9.98;;;1.40;99.90;;;;;;5041711;28;20055;-57
2022/03/18 06:43:57;;;;;;;20.63;11.13;;;1.40;99.90;;;;;;5042872;28;20048;-57
2022/03/18 06:46:24;;;;;;;16.10;10.75;;;1.50;99.90;;;;;;5037499;28;20145;-58
2022/03/18 06:48:50;;;;;;;13.85;10.43;;;1.60;99.90;;;;;;5038336;28;20123;-57
2022/03/18 06:51:16;;;;;;;15.70;10.23;;;1.70;99.90;;;;;;5047490;28;20041;-57
2022/03/18 06:53:44;;;;;;;19.55;10.68;;;1.80;99.90;;;;;;5029719;28;20053;-57
2022/03/18 06:56:12;;;;;;;15.30;10.63;;;1.90;99.90;;;;;;5040758;28;20053;-57
2022/03/18 06:58:40;;;;;;;16.23;10.57;;;2.00;99.90;;;;;;5045244;28;20049;-57
2022/03/18 07:01:06;;;;;;;15.38;11.30;;;2.20;99.90;;;;;;5023430;28;20511;-57
2022/03/18 07:03:32;;;;;;;16.13;10.73;;;2.40;99.90;;;;;;5034380;28;20043;-58
2022/03/18 07:05:58;;;;;;;16.30;11.75;;;2.60;99.90;;;;;;5058904;28;20049;-57
2022/03/18 07:08:25;;;;;;;15.07;10.90;;;3.00;99.90;;;;;;5027908;28;20041;-57
2022/03/18 07:10:52;;;;;;;17.17;9.90;;;3.30;99.90;;;;;;5039662;28;20045;-58
2022/03/18 07:13:18;;;;;;;16.27;10.07;;;3.60;99.90;;;;;;5043098;28;20049;-58
2022/03/18 07:15:44;;;;;;;14.60;10.02;;;4.00;99.90;;;;;;5046937;28;20037;-58
2022/03/18 07:18:10;;;;;;;14.32;10.90;;;4.40;99.90;;;;;;5021805;28;20048;-57
2022/03/18 07:20:37;;;;;;;15.43;11.20;;;4.80;99.90;;;;;;5043166;28;20135;-58
2022/03/18 07:23:08;;;;;;;17.48;12.48;;;5.10;99.90;;;;;;5049081;28;20053;-57
2022/03/18 07:25:40;;;;;;;16.25;12.10;;;5.50;99.90;;;;;;5046118;28;20064;-58
2022/03/18 07:28:08;;;;;;;17.50;12.63;;;5.90;99.90;;;;;;5049928;28;20044;-57
2022/03/18 07:30:36;;;;;;;19.13;11.95;;;6.30;99.90;;;;;;5031769;28;20111;-58
2022/03/18 07:33:03;;;;;;;14.95;11.50;;;6.60;99.90;;;;;;5035746;28;20056;-58
2022/03/18 07:35:32;;;;;;;17.50;11.85;;;6.90;99.90;;;;;;5032533;28;20461;-58
2022/03/18 07:37:58;;;;;;;15.52;12.23;;;7.50;99.90;;;;;;5040472;28;20048;-58
2022/03/18 07:40:25;;;;;;;18.80;12.32;;;7.70;99.90;;;;;;5040065;28;20072;-58
2022/03/18 07:42:53;;;;;;;15.45;11.07;;;7.90;99.90;;;;;;5055461;28;20476;-59
2022/03/18 07:45:30;;;;;;;16.67;11.25;;;8.30;99.90;;;;;;5040663;28;20048;-58
2022/03/18 07:48:01;;;;;;;14.93;11.18;;;8.40;99.90;;;;;;5023048;28;20048;-59
2022/03/18 07:50:29;;;;;;;15.70;11.80;;;8.80;99.90;;;;;;5041864;28;20087;-58
2022/03/18 07:53:07;;;;;;;14.20;10.05;;;9.40;99.90;;;;;;5049085;28;20544;-58
2022/03/18 07:55:36;;;;;;;17.27;10.90;;;10.00;99.90;;;;;;5031881;28;20625;-59
2022/03/18 07:58:03;;;;;;;16.48;11.00;;;10.40;99.90;;;;;;5054055;28;20045;-58
2022/03/18 08:00:29;;;;;;;14.38;11.10;;;10.40;99.90;;;;;;5037312;28;20041;-57
2022/03/18 08:02:55;;;;;;;15.50;10.73;;;10.80;99.90;;;;;;5037689;28;20116;-58
2022/03/18 08:05:22;;;;;;;15.88;10.45;;;11.10;99.90;;;;;;5034746;28;20554;-58
2022/03/18 08:07:48;;;;;;;11.90;10.50;;;11.40;99.90;;;;;;5034844;28;20049;-58
2022/03/18 08:10:17;;;;;;;14.73;11.60;;;11.50;99.90;;;;;;5035467;28;20049;-57
2022/03/18 08:12:45;;;;;;;14.73;11.02;;;11.90;99.90;;;;;;5018676;28;20055;-59
2022/03/18 08:15:16;;;;;;;14.45;10.32;;;12.00;99.90;;;;;;5052691;28;20053;-57
2022/03/18 08:17:43;;;;;;;17.70;11.48;;;12.00;99.90;;;;;;5039421;28;20033;-58
2022/03/18 08:20:14;;;;;;;14.50;11.20;;;12.10;99.90;;;;;;5039377;28;20064;-58
2022/03/18 08:22:41;;;;;;;17.02;12.25;;;12.30;99.90;;;;;;5033012;28;20428;-58
2022/03/18 08:25:09;;;;;;;14.15;10.35;;;12.70;99.90;;;;;;5033807;28;20155;-58
2022/03/18 08:27:36;;;;;;;16.20;10.70;;;12.80;99.90;;;;;;5036584;28;20045;-58
2022/03/18 08:30:05;;;;;;;16.10;10.80;;;13.10;99.90;;;;;;5037200;28;20045;-58
2022/03/18 08:32:31;;;;;;;18.58;11.50;;;13.50;99.90;;;;;;5030962;28;20049;-59
2022/03/18 08:34:58;;;;;;;14.93;10.32;;;13.40;99.90;;;;;;5052876;28;20052;-58
2022/03/18 08:40:12;;;;;;;17.05;10.00;;;14.50;99.90;;;;;;5015468;28;20055;-58
2022/03/18 08:42:39;;;;;;;12.27;10.05;;;14.60;99.90;;;;;;5052319;28;20084;-58
2022/03/18 08:45:06;;;;;;;14.70;9.90;;;14.80;99.90;;;;;;5038638;28;20044;-58
2022/03/18 08:47:33;;;;;;;18.48;10.60;;;15.20;99.90;;;;;;5034132;28;20081;-58
2022/03/18 08:49:59;;;;;;;16.40;9.85;;;15.90;99.90;;;;;;5035642;28;20036;-59
2022/03/18 08:52:26;;;;;;;14.90;9.27;;;16.00;99.90;;;;;;5034719;28;20041;-59
2022/03/18 08:54:52;;;;;;;15.50;9.63;;;16.30;99.90;;;;;;5036092;28;20051;-59
2022/03/18 08:57:18;;;;;;;17.05;9.18;;;16.60;99.90;;;;;;5004988;28;20045;-60
2022/03/18 08:59:44;;;;;;;16.80;9.82;;;16.60;99.90;;;;;;5032359;28;20395;-59
2022/03/18 09:02:10;;;;;;;12.88;9.32;;;16.80;99.80;;;;;;5037209;28;20378;-59
2022/03/18 09:04:36;;;;;;;13.65;9.35;;;16.90;90.50;;;;;;5024715;28;20049;-59
2022/03/18 09:07:03;;;;;;;14.27;9.90;;;17.30;82.30;;;;;;5036965;28;20474;-58
2022/03/18 09:09:29;;;;;;;15.70;10.40;;;17.10;78.70;;;;;;5050863;28;20044;-61
2022/03/18 09:11:55;;;;;;;15.05;10.10;;;17.40;73.60;;;;;;5021214;28;20088;-59
2022/03/18 09:14:21;;;;;;;16.75;10.30;;;17.50;73.70;;;;;;5043263;28;20528;-58
2022/03/18 09:16:49;;;;;;;14.05;8.95;;;17.80;70.40;;;;;;5041323;28;20041;-58
2022/03/18 09:19:16;;;;;;;13.70;8.98;;;17.60;66.20;;;;;;5044025;28;21388;-59
2022/03/18 09:21:42;;;;;;;15.98;8.98;;;18.00;64.00;;;;;;5056438;28;20049;-59
2022/03/18 09:24:09;;;;;;;20.10;9.35;;;18.20;64.10;;;;;;5041025;28;20045;-56
2022/03/18 09:26:37;;;;;;;17.20;9.52;;;18.40;62.40;;;;;;5040029;28;20053;-59
2022/03/18 09:29:03;;;;;;;16.77;9.48;;;18.40;61.50;;;;;;5040883;28;20182;-58
2022/03/18 09:31:29;;;;;;;18.35;10.20;;;18.60;61.60;;;;;;5036705;28;20547;-59
2022/03/18 09:33:56;;;;;;;15.60;9.32;;;18.60;60.40;;;;;;5038302;28;20055;-58
2022/03/18 09:36:22;;;;;;;14.32;8.70;;;18.80;60.10;;;;;;5038923;28;20201;-58
2022/03/18 09:38:48;;;;;;;15.00;9.52;;;19.20;59.00;;;;;;5005651;28;20091;-59
2022/03/18 09:41:16;;;;;;;17.00;9.32;;;18.80;57.00;;;;;;5037720;28;20408;-59
2022/03/18 09:43:43;;;;;;;15.38;8.38;;;19.10;58.40;;;;;;5040243;28;20422;-59
2022/03/18 09:46:11;;;;;;;13.45;8.45;;;19.20;56.70;;;;;;5041812;28;20265;-59
2022/03/18 09:48:38;;;;;;;15.60;8.88;;;19.60;56.30;;;;;;5057382;28;20666;-58
2022/03/18 09:51:05;;;;;;;16.45;9.57;;;19.80;55.70;;;;;;5043399;28;20562;-60
2022/03/18 09:53:34;;;;;;;15.40;9.02;;;19.80;55.50;;;;;;5044175;28;20041;-62
2022/03/18 09:56:01;;;;;;;20.10;15.18;;;20.20;55.30;;;;;;5039867;28;20395;-62
2022/03/18 09:58:27;;;;;;;12.75;8.90;;;20.80;53.30;;;;;;5042553;28;20075;-62
2022/03/18 10:00:58;;;;;;;12.70;8.05;;;21.00;54.00;;;;;;5038446;28;20038;-62
2022/03/18 10:03:45;;;;;;;14.63;9.40;;;21.10;54.00;;;;;;5045088;28;20045;-63
2022/03/18 10:06:12;;;;;;;14.85;8.20;;;20.90;53.00;;;;;;5023731;28;20975;-59
2022/03/18 10:08:39;;;;;;;17.15;8.57;;;21.40;51.50;;;;;;5046534;28;20113;-61
2022/03/18 10:11:19;;;;;;;15.90;8.57;;;21.80;50.10;;;;;;5042496;28;20116;-62
2022/03/18 10:14:01;;;;;;;12.70;7.95;;;21.60;51.30;;;;;;5040943;28;20147;-63
2022/03/18 10:16:42;;;;;;;14.98;9.50;;;21.70;50.00;;;;;;5036626;28;20052;-63
2022/03/18 10:19:14;;;;;;;31.70;23.73;;;21.90;49.00;;;;;;5036995;28;20085;-62
2022/03/18 10:21:52;;;;;;;24.63;16.63;;;21.60;48.60;;;;;;5036009;28;20045;-62
2022/03/18 10:24:23;;;;;;;13.32;7.70;;;22.00;48.10;;;;;;5040270;28;20040;-65
2022/03/18 10:26:50;;;;;;;17.80;9.68;;;21.80;48.90;;;;;;5040177;28;20053;-66
2022/03/18 10:29:16;;;;;;;19.15;11.15;;;21.80;49.10;;;;;;5043064;28;20127;-65
2022/03/18 10:31:59;;;;;;;33.72;26.98;;;22.20;48.60;;;;;;5041240;28;20053;-65
2022/03/18 10:37:21;;;;;;;20.17;17.13;;;22.70;46.70;;;;;;5053560;28;20049;-65
2022/03/18 10:39:51;;;;;;;21.88;15.23;;;22.70;48.40;;;;;;5040346;28;20100;-60
2022/03/18 10:42:20;;;;;;;10.93;7.10;;;22.80;47.60;;;;;;5038166;28;21386;-60
2022/03/18 10:44:50;;;;;;;13.55;8.00;;;23.00;47.20;;;;;;5043782;28;20049;-61
2022/03/18 10:47:28;;;;;;;13.43;8.10;;;22.90;46.60;;;;;;5037860;28;20081;-61
2022/03/18 10:50:09;;;;;;;17.67;8.52;;;23.40;45.30;;;;;;5024243;28;20048;-62
2022/03/18 10:52:40;;;;;;;21.90;15.68;;;23.40;45.10;;;;;;5042774;28;20405;-61
2022/03/18 10:55:26;;;;;;;11.25;7.80;;;22.90;47.10;;;;;;5040593;28;20060;-59
2022/03/18 10:58:01;;;;;;;14.55;8.85;;;23.50;45.50;;;;;;5041303;28;20127;-59
2022/03/18 11:00:32;;;;;;;21.23;12.82;;;23.40;45.10;;;;;;5040373;28;20408;-59
2022/03/18 11:03:01;;;;;;;13.07;10.10;;;23.80;45.80;;;;;;5037158;28;20045;-57
2022/03/18 11:05:32;;;;;;;17.45;11.88;;;24.10;45.30;;;;;;5040260;28;20092;-60
2022/03/18 11:08:00;;;;;;;;;;;23.90;44.30;;;;;;5037845;28;20084;-59
2022/03/18 11:13:14;;;;;;;12.93;7.25;;;24.40;43.80;;;;;;5039296;28;20066;-59
2022/03/18 11:15:44;;;;;;;14.07;7.03;;;24.30;44.50;;;;;;5037803;28;20053;-59
2022/03/18 11:18:12;;;;;;;12.97;9.43;;;24.30;44.00;;;;;;5040344;28;20723;-59
2022/03/18 11:20:43;;;;;;;13.18;7.55;;;24.50;43.80;;;;;;5040067;28;20060;-59
2022/03/18 11:23:22;;;;;;;18.35;11.57;;;24.30;43.60;;;;;;5035273;28;20444;-62
2022/03/18 11:26:00;;;;;;;10.88;7.35;;;24.80;42.60;;;;;;5036619;28;20480;-59
2022/03/18 11:28:27;;;;;;;11.05;6.93;;;24.70;41.60;;;;;;5038911;28;20070;-59
2022/03/18 11:31:10;;;;;;;12.00;6.65;;;23.70;43.90;;;;;;5038248;28;20692;-59
2022/03/18 11:33:38;;;;;;;12.73;7.00;;;23.50;43.40;;;;;;5040258;28;20564;-65
2022/03/18 11:36:06;;;;;;;14.13;8.13;;;23.40;44.20;;;;;;5037651;28;20052;-66
2022/03/18 11:38:56;;;;;;;9.25;6.07;;;23.70;43.90;;;;;;5037018;28;20044;-67
2022/03/18 11:41:27;;;;;;;11.48;5.45;;;24.10;43.20;;;;;;5033215;28;20045;-67
2022/03/18 11:43:54;;;;;;;10.15;5.63;;;24.30;43.30;;;;;;5034519;28;20504;-59
2022/03/18 11:46:25;;;;;;;12.15;5.90;;;24.60;42.80;;;;;;5038672;28;20516;-66
2022/03/18 11:48:54;;;;;;;;;;;24.40;42.70;;;;;;5038515;28;20049;-67
2022/03/18 11:51:34;;;;;;;11.23;5.75;;;24.00;42.30;;;;;;5022331;28;19928;-60
2022/03/18 11:54:02;;;;;;;11.93;7.43;;;23.60;42.10;;;;;;5039285;28;20532;-67
2022/03/18 11:56:48;;;;;;;11.98;6.03;;;24.10;42.40;;;;;;5035370;28;20056;-67
2022/03/18 11:59:31;;;;;;;11.55;4.78;;;24.10;40.80;;;;;;5054415;28;20057;-66
2022/03/18 12:02:01;;;;;;;16.85;9.45;;;24.50;40.70;;;;;;5039495;28;20156;-67
2022/03/18 12:04:38;;;;;;;11.05;6.57;;;24.60;41.10;;;;;;5019648;28;20214;-66
2022/03/18 12:07:09;;;;;;;10.68;6.10;;;25.00;40.80;;;;;;5036159;28;20378;-66
2022/03/18 12:09:55;;;;;;;10.00;5.72;;;25.40;40.00;;;;;;5037461;28;20049;-62
2022/03/18 12:12:29;;;;;;;18.80;13.82;;;25.70;39.00;;;;;;5031211;28;20045;-66
2022/03/18 12:14:59;;;;;;;14.77;8.07;;;25.80;39.20;;;;;;5037762;28;20060;-60
2022/03/18 12:17:25;;;;;;;11.95;7.30;;;25.00;37.80;;;;;;4992871;28;20603;-60
2022/03/18 12:19:57;;;;;;;10.90;4.53;;;24.10;39.70;;;;;;5041489;28;20378;-59
2022/03/18 12:22:24;;;;;;;15.82;8.27;;;23.00;41.50;;;;;;5040745;28;20045;-60
2022/03/18 12:24:53;;;;;;;16.08;8.70;;;21.90;43.60;;;;;;5035196;28;20052;-60
2022/03/18 12:27:21;;;;;;;11.65;4.47;;;21.40;45.20;;;;;;5038956;28;20172;-59
2022/03/18 12:29:47;;;;;;;24.42;16.88;;;20.90;45.30;;;;;;5054784;28;20567;-60
2022/03/18 12:32:15;;;;;;;9.20;3.45;;;20.50;45.60;;;;;;5036560;28;20416;-60
2022/03/18 12:34:50;;;;;;;12.70;4.05;;;20.10;45.70;;;;;;5035965;28;20499;-60
2022/03/18 12:37:22;;;;;;;9.32;3.78;;;19.90;46.50;;;;;;5037455;28;20048;-60
2022/03/18 12:40:06;;;;;;;12.88;4.80;;;19.60;47.40;;;;;;5039284;28;20057;-60
2022/03/18 12:42:48;;;;;;;13.68;4.63;;;19.40;47.50;;;;;;5045050;28;20112;-59
2022/03/18 12:45:42;;;;;;;11.23;4.70;;;20.50;48.10;;;;;;5023512;28;20120;-60
2022/03/18 12:48:13;;;;;;;14.30;8.15;;;21.90;44.00;;;;;;5045242;28;20073;-61
2022/03/18 12:50:43;;;;;;;11.13;4.28;;;23.10;43.60;;;;;;5047547;28;20048;-60
2022/03/18 12:53:15;;;;;;;12.32;4.18;;;23.80;42.70;;;;;;5045661;28;20116;-60
2022/03/18 12:55:49;;;;;;;11.23;5.07;;;24.40;40.60;;;;;;5049098;28;20044;-60
2022/03/18 12:58:27;;;;;;;12.13;5.07;;;23.60;39.90;;;;;;5043372;28;20116;-60
2022/03/18 13:00:59;;;;;;;11.23;3.78;;;22.90;41.90;;;;;;5047458;28;20040;-60
2022/03/18 13:03:27;;;;;;;11.45;3.80;;;21.90;42.50;;;;;;5046501;28;20048;-59
2022/03/18 13:06:02;;;;;;;10.70;3.55;;;21.50;43.60;;;;;;5045831;28;20049;-60
2022/03/18 13:08:30;;;;;;;8.55;3.25;;;20.70;44.60;;;;;;5046692;28;20083;-59